sensor_id;sensor_type;location;lat;lon;timestamp;P1;durP1;ratioP1;P2;durP2;ratioP2
2031;SDS011;27625;50.422;7.944;2022-07-23T00:02:36;15.40;;;12.60;;
2031;SDS011;27625;50.422;7.944;2022-07-23T00:05:03;14.27;;;12.60;;
2031;SDS011;27625;50.422;7.944;2022-07-23T00:07:30;16.03;;;11.50;;
2031;SDS011;27625;50.422;7.944;2022-07-23T00:09:56;14.53;;;11.50;;
2031;SDS011;27625;50.422;7.944;2022-07-23T00:12:23;15.87;;;11.97;;
2031;SDS011;27625;50.422;7.944;2022-07-23T00:14:49;13.13;;;11.90;;
2031;SDS011;27625;50.422;7.944;2022-07-23T00:17:16;12.20;;;11.00;;
2031;SDS011;27625;50.422;7.944;2022-07-23T00:19:44;18.60;;;12.47;;
2031;SDS011;27625;50.422;7.944;2022-07-23T00:22:10;14.03;;;12.63;;
2031;SDS011;27625;50.422;7.944;2022-07-23T00:24:37;13.90;;;12.07;;
2031;SDS011;27625;50.422;7.944;2022-07-23T00:27:03;14.53;;;12.27;;
2031;SDS011;27625;50.422;7.944;2022-07-23T00:29:30;16.73;;;12.13;;
2031;SDS011;27625;50.422;7.944;2022-07-23T00:31:56;17.53;;;12.60;;
2031;SDS011;27625;50.422;7.944;2022-07-23T00:34:23;13.40;;;12.00;;
2031;SDS011;27625;50.422;7.944;2022-07-23T00:36:51;15.00;;;12.10;;
2031;SDS011;27625;50.422;7.944;2022-07-23T00:39:18;14.63;;;13.10;;
2031;SDS011;27625;50.422;7.944;2022-07-23T00:41:46;14.70;;;11.70;;
2031;SDS011;27625;50.422;7.944;2022-07-23T00:44:16;13.27;;;11.43;;
2031;SDS011;27625;50.422;7.944;2022-07-23T00:46:45;14.03;;;11.07;;
2031;SDS011;27625;50.422;7.944;2022-07-23T00:49:12;13.10;;;11.67;;
2031;SDS011;27625;50.422;7.944;2022-07-23T00:51:38;12.80;;;11.43;;
2031;SDS011;27625;50.422;7.944;2022-07-23T00:54:06;11.30;;;10.13;;
2031;SDS011;27625;50.422;7.944;2022-07-23T00:56:35;12.40;;;10.70;;
2031;SDS011;27625;50.422;7.944;2022-07-23T00:59:01;13.80;;;12.30;;
2031;SDS011;27625;50.422;7.944;2022-07-23T01:01:28;12.77;;;11.47;;
2031;SDS011;27625;50.422;7.944;2022-07-23T01:03:54;11.93;;;10.80;;
2031;SDS011;27625;50.422;7.944;2022-07-23T01:06:21;13.13;;;11.20;;
2031;SDS011;27625;50.422;7.944;2022-07-23T01:08:47;12.47;;;11.30;;
2031;SDS011;27625;50.422;7.944;2022-07-23T01:11:15;12.30;;;11.10;;
2031;SDS011;27625;50.422;7.944;2022-07-23T01:13:43;12.63;;;10.90;;
2031;SDS011;27625;50.422;7.944;2022-07-23T01:16:09;11.80;;;10.70;;
2031;SDS011;27625;50.422;7.944;2022-07-23T01:18:36;12.40;;;11.10;;
2031;SDS011;27625;50.422;7.944;2022-07-23T01:21:03;11.93;;;10.80;;
2031;SDS011;27625;50.422;7.944;2022-07-23T01:23:30;12.43;;;11.20;;
2031;SDS011;27625;50.422;7.944;2022-07-23T01:25:57;12.23;;;10.93;;
2031;SDS011;27625;50.422;7.944;2022-07-23T01:28:23;13.90;;;12.40;;
2031;SDS011;27625;50.422;7.944;2022-07-23T01:30:50;14.30;;;10.37;;
2031;SDS011;27625;50.422;7.944;2022-07-23T01:33:16;13.10;;;11.03;;
2031;SDS011;27625;50.422;7.944;2022-07-23T01:35:43;12.57;;;11.37;;
2031;SDS011;27625;50.422;7.944;2022-07-23T01:38:09;13.30;;;11.90;;
2031;SDS011;27625;50.422;7.944;2022-07-23T01:40:37;13.17;;;11.87;;
2031;SDS011;27625;50.422;7.944;2022-07-23T01:43:03;13.30;;;11.87;;
2031;SDS011;27625;50.422;7.944;2022-07-23T01:45:30;13.43;;;11.10;;
2031;SDS011;27625;50.422;7.944;2022-07-23T01:47:56;14.10;;;12.60;;
2031;SDS011;27625;50.422;7.944;2022-07-23T01:50:23;14.03;;;11.53;;
2031;SDS011;27625;50.422;7.944;2022-07-23T01:52:49;12.13;;;10.93;;
2031;SDS011;27625;50.422;7.944;2022-07-23T01:55:15;13.00;;;11.60;;
2031;SDS011;27625;50.422;7.944;2022-07-23T01:57:43;14.20;;;11.70;;
2031;SDS011;27625;50.422;7.944;2022-07-23T02:00:10;13.50;;;12.10;;
2031;SDS011;27625;50.422;7.944;2022-07-23T02:02:37;12.40;;;11.10;;
2031;SDS011;27625;50.422;7.944;2022-07-23T02:05:04;13.57;;;12.17;;
2031;SDS011;27625;50.422;7.944;2022-07-23T02:07:31;15.43;;;12.27;;
2031;SDS011;27625;50.422;7.944;2022-07-23T02:09:57;13.80;;;11.90;;
2031;SDS011;27625;50.422;7.944;2022-07-23T02:12:24;13.50;;;11.90;;
2031;SDS011;27625;50.422;7.944;2022-07-23T02:14:52;14.40;;;12.10;;
2031;SDS011;27625;50.422;7.944;2022-07-23T02:17:18;13.43;;;11.67;;
2031;SDS011;27625;50.422;7.944;2022-07-23T02:19:44;14.97;;;11.93;;
2031;SDS011;27625;50.422;7.944;2022-07-23T02:22:11;14.70;;;13.20;;
2031;SDS011;27625;50.422;7.944;2022-07-23T02:24:37;12.90;;;11.60;;
2031;SDS011;27625;50.422;7.944;2022-07-23T02:27:04;13.30;;;12.00;;
2031;SDS011;27625;50.422;7.944;2022-07-23T02:29:30;14.20;;;11.60;;
2031;SDS011;27625;50.422;7.944;2022-07-23T02:31:58;12.43;;;11.23;;
2031;SDS011;27625;50.422;7.944;2022-07-23T02:34:25;14.13;;;12.50;;
2031;SDS011;27625;50.422;7.944;2022-07-23T02:36:51;13.37;;;11.13;;
2031;SDS011;27625;50.422;7.944;2022-07-23T02:39:18;13.63;;;12.17;;
2031;SDS011;27625;50.422;7.944;2022-07-23T02:41:44;12.20;;;11.00;;
2031;SDS011;27625;50.422;7.944;2022-07-23T02:44:11;12.83;;;11.40;;
2031;SDS011;27625;50.422;7.944;2022-07-23T02:46:37;12.97;;;11.60;;
2031;SDS011;27625;50.422;7.944;2022-07-23T02:49:05;14.77;;;13.20;;
2031;SDS011;27625;50.422;7.944;2022-07-23T02:51:31;12.20;;;11.00;;
2031;SDS011;27625;50.422;7.944;2022-07-23T02:53:58;12.37;;;11.07;;
2031;SDS011;27625;50.422;7.944;2022-07-23T02:56:24;12.87;;;11.67;;
2031;SDS011;27625;50.422;7.944;2022-07-23T02:58:50;13.40;;;12.00;;
2031;SDS011;27625;50.422;7.944;2022-07-23T03:01:17;14.03;;;11.30;;
2031;SDS011;27625;50.422;7.944;2022-07-23T03:03:43;13.50;;;11.50;;
2031;SDS011;27625;50.422;7.944;2022-07-23T03:06:11;13.87;;;12.37;;
2031;SDS011;27625;50.422;7.944;2022-07-23T03:08:38;14.73;;;11.47;;
2031;SDS011;27625;50.422;7.944;2022-07-23T03:11:05;13.07;;;11.70;;
2031;SDS011;27625;50.422;7.944;2022-07-23T03:13:35;16.10;;;12.70;;
2031;SDS011;27625;50.422;7.944;2022-07-23T03:16:02;14.20;;;12.80;;
2031;SDS011;27625;50.422;7.944;2022-07-23T03:18:29;13.40;;;12.00;;
2031;SDS011;27625;50.422;7.944;2022-07-23T03:20:56;15.77;;;11.40;;
2031;SDS011;27625;50.422;7.944;2022-07-23T03:23:23;14.37;;;12.73;;
2031;SDS011;27625;50.422;7.944;2022-07-23T03:25:50;16.00;;;13.07;;
2031;SDS011;27625;50.422;7.944;2022-07-23T03:28:17;14.20;;;12.80;;
2031;SDS011;27625;50.422;7.944;2022-07-23T03:30:43;15.23;;;12.97;;
2031;SDS011;27625;50.422;7.944;2022-07-23T03:33:11;13.87;;;12.47;;
2031;SDS011;27625;50.422;7.944;2022-07-23T03:35:38;13.40;;;12.07;;
2031;SDS011;27625;50.422;7.944;2022-07-23T03:38:04;15.67;;;11.70;;
2031;SDS011;27625;50.422;7.944;2022-07-23T03:40:32;15.50;;;12.07;;
2031;SDS011;27625;50.422;7.944;2022-07-23T03:42:58;13.17;;;11.70;;
2031;SDS011;27625;50.422;7.944;2022-07-23T03:45:25;13.87;;;12.47;;
2031;SDS011;27625;50.422;7.944;2022-07-23T03:47:52;13.63;;;12.20;;
2031;SDS011;27625;50.422;7.944;2022-07-23T03:50:18;15.70;;;13.37;;
2031;SDS011;27625;50.422;7.944;2022-07-23T03:52:45;15.20;;;13.60;;
2031;SDS011;27625;50.422;7.944;2022-07-23T03:55:12;13.87;;;12.47;;
2031;SDS011;27625;50.422;7.944;2022-07-23T03:57:40;16.47;;;11.87;;
2031;SDS011;27625;50.422;7.944;2022-07-23T04:00:07;16.20;;;12.40;;
2031;SDS011;27625;50.422;7.944;2022-07-23T04:02:35;17.50;;;12.20;;
2031;SDS011;27625;50.422;7.944;2022-07-23T04:05:03;14.20;;;12.37;;
2031;SDS011;27625;50.422;7.944;2022-07-23T04:07:30;13.50;;;12.10;;
2031;SDS011;27625;50.422;7.944;2022-07-23T04:09:56;15.50;;;12.70;;
2031;SDS011;27625;50.422;7.944;2022-07-23T04:12:23;14.20;;;12.77;;
2031;SDS011;27625;50.422;7.944;2022-07-23T04:14:51;13.47;;;12.10;;
2031;SDS011;27625;50.422;7.944;2022-07-23T04:17:17;12.47;;;11.13;;
2031;SDS011;27625;50.422;7.944;2022-07-23T04:19:44;13.47;;;12.07;;
2031;SDS011;27625;50.422;7.944;2022-07-23T04:22:10;13.37;;;11.53;;
2031;SDS011;27625;50.422;7.944;2022-07-23T04:24:37;13.10;;;11.40;;
2031;SDS011;27625;50.422;7.944;2022-07-23T04:27:04;11.90;;;10.60;;
2031;SDS011;27625;50.422;7.944;2022-07-23T04:29:31;11.90;;;10.20;;
2031;SDS011;27625;50.422;7.944;2022-07-23T04:31:59;11.63;;;9.67;;
2031;SDS011;27625;50.422;7.944;2022-07-23T04:34:26;10.70;;;9.60;;
2031;SDS011;27625;50.422;7.944;2022-07-23T04:36:52;10.50;;;9.40;;
2031;SDS011;27625;50.422;7.944;2022-07-23T04:39:19;10.87;;;9.77;;
2031;SDS011;27625;50.422;7.944;2022-07-23T04:41:49;11.63;;;10.20;;
2031;SDS011;27625;50.422;7.944;2022-07-23T04:44:15;12.20;;;9.87;;
2031;SDS011;27625;50.422;7.944;2022-07-23T04:46:41;11.60;;;10.37;;
2031;SDS011;27625;50.422;7.944;2022-07-23T04:49:09;11.43;;;9.67;;
2031;SDS011;27625;50.422;7.944;2022-07-23T04:51:36;12.50;;;10.07;;
2031;SDS011;27625;50.422;7.944;2022-07-23T04:54:02;12.03;;;10.60;;
2031;SDS011;27625;50.422;7.944;2022-07-23T04:56:29;10.73;;;9.30;;
2031;SDS011;27625;50.422;7.944;2022-07-23T04:58:55;10.83;;;9.23;;
2031;SDS011;27625;50.422;7.944;2022-07-23T05:01:22;12.00;;;9.23;;
2031;SDS011;27625;50.422;7.944;2022-07-23T05:03:48;11.27;;;9.00;;
2031;SDS011;27625;50.422;7.944;2022-07-23T05:06:16;9.90;;;8.90;;
2031;SDS011;27625;50.422;7.944;2022-07-23T05:08:42;11.97;;;10.00;;
2031;SDS011;27625;50.422;7.944;2022-07-23T05:11:09;11.33;;;9.67;;
2031;SDS011;27625;50.422;7.944;2022-07-23T05:13:35;9.87;;;8.87;;
2031;SDS011;27625;50.422;7.944;2022-07-23T05:16:02;11.20;;;9.80;;
2031;SDS011;27625;50.422;7.944;2022-07-23T05:18:28;12.00;;;8.87;;
2031;SDS011;27625;50.422;7.944;2022-07-23T05:20:55;10.30;;;9.20;;
2031;SDS011;27625;50.422;7.944;2022-07-23T05:23:22;10.23;;;8.80;;
2031;SDS011;27625;50.422;7.944;2022-07-23T05:25:49;11.67;;;9.00;;
2031;SDS011;27625;50.422;7.944;2022-07-23T05:28:16;10.73;;;8.90;;
2031;SDS011;27625;50.422;7.944;2022-07-23T05:30:42;11.53;;;9.60;;
2031;SDS011;27625;50.422;7.944;2022-07-23T05:33:09;12.13;;;8.50;;
2031;SDS011;27625;50.422;7.944;2022-07-23T05:35:35;9.70;;;8.67;;
2031;SDS011;27625;50.422;7.944;2022-07-23T05:38:01;12.40;;;8.50;;
2031;SDS011;27625;50.422;7.944;2022-07-23T05:40:29;10.77;;;8.77;;
2031;SDS011;27625;50.422;7.944;2022-07-23T05:42:57;11.90;;;9.33;;
2031;SDS011;27625;50.422;7.944;2022-07-23T05:45:24;11.03;;;9.90;;
2031;SDS011;27625;50.422;7.944;2022-07-23T05:47:50;10.07;;;8.50;;
2031;SDS011;27625;50.422;7.944;2022-07-23T05:50:17;10.33;;;8.93;;
2031;SDS011;27625;50.422;7.944;2022-07-23T05:52:43;9.80;;;8.90;;
2031;SDS011;27625;50.422;7.944;2022-07-23T05:55:11;8.60;;;7.80;;
2031;SDS011;27625;50.422;7.944;2022-07-23T05:57:39;8.87;;;8.00;;
2031;SDS011;27625;50.422;7.944;2022-07-23T06:00:06;8.73;;;7.60;;
2031;SDS011;27625;50.422;7.944;2022-07-23T06:02:34;8.67;;;7.77;;
2031;SDS011;27625;50.422;7.944;2022-07-23T06:05:00;8.37;;;7.40;;
2031;SDS011;27625;50.422;7.944;2022-07-23T06:07:27;8.30;;;7.50;;
2031;SDS011;27625;50.422;7.944;2022-07-23T06:09:53;8.80;;;7.90;;
2031;SDS011;27625;50.422;7.944;2022-07-23T06:12:20;8.00;;;7.30;;
2031;SDS011;27625;50.422;7.944;2022-07-23T06:14:48;8.80;;;8.00;;
2031;SDS011;27625;50.422;7.944;2022-07-23T06:17:14;8.47;;;7.57;;
2031;SDS011;27625;50.422;7.944;2022-07-23T06:19:41;8.27;;;7.43;;
2031;SDS011;27625;50.422;7.944;2022-07-23T06:22:08;9.27;;;7.70;;
2031;SDS011;27625;50.422;7.944;2022-07-23T06:24:34;8.90;;;7.40;;
2031;SDS011;27625;50.422;7.944;2022-07-23T06:27:01;8.53;;;7.63;;
2031;SDS011;27625;50.422;7.944;2022-07-23T06:29:27;8.87;;;7.30;;
2031;SDS011;27625;50.422;7.944;2022-07-23T06:31:55;8.40;;;7.60;;
2031;SDS011;27625;50.422;7.944;2022-07-23T06:34:21;8.17;;;7.10;;
2031;SDS011;27625;50.422;7.944;2022-07-23T06:36:48;8.60;;;7.20;;
2031;SDS011;27625;50.422;7.944;2022-07-23T06:39:14;9.67;;;7.33;;
2031;SDS011;27625;50.422;7.944;2022-07-23T06:41:41;10.00;;;7.97;;
2031;SDS011;27625;50.422;7.944;2022-07-23T06:44:07;8.80;;;7.77;;
2031;SDS011;27625;50.422;7.944;2022-07-23T06:46:34;8.80;;;6.93;;
2031;SDS011;27625;50.422;7.944;2022-07-23T06:49:02;10.13;;;6.60;;
2031;SDS011;27625;50.422;7.944;2022-07-23T06:51:29;7.00;;;6.30;;
2031;SDS011;27625;50.422;7.944;2022-07-23T06:53:55;8.97;;;6.50;;
2031;SDS011;27625;50.422;7.944;2022-07-23T06:56:23;7.60;;;6.90;;
2031;SDS011;27625;50.422;7.944;2022-07-23T06:58:50;7.10;;;6.40;;
2031;SDS011;27625;50.422;7.944;2022-07-23T07:01:16;9.13;;;6.70;;
2031;SDS011;27625;50.422;7.944;2022-07-23T07:03:43;17.10;;;6.87;;
2031;SDS011;27625;50.422;7.944;2022-07-23T07:06:11;9.23;;;6.80;;
2031;SDS011;27625;50.422;7.944;2022-07-23T07:08:37;7.27;;;6.27;;
2031;SDS011;27625;50.422;7.944;2022-07-23T07:11:04;8.27;;;6.70;;
2031;SDS011;27625;50.422;7.944;2022-07-23T07:13:30;8.00;;;7.20;;
2031;SDS011;27625;50.422;7.944;2022-07-23T07:15:57;7.77;;;6.73;;
2031;SDS011;27625;50.422;7.944;2022-07-23T07:18:23;12.23;;;6.77;;
2031;SDS011;27625;50.422;7.944;2022-07-23T07:20:50;7.13;;;6.37;;
2031;SDS011;27625;50.422;7.944;2022-07-23T07:23:19;12.73;;;7.10;;
2031;SDS011;27625;50.422;7.944;2022-07-23T07:25:45;8.60;;;6.73;;
2031;SDS011;27625;50.422;7.944;2022-07-23T07:28:11;9.40;;;7.13;;
2031;SDS011;27625;50.422;7.944;2022-07-23T07:30:38;8.50;;;7.47;;
2031;SDS011;27625;50.422;7.944;2022-07-23T07:33:05;9.07;;;7.73;;
2031;SDS011;27625;50.422;7.944;2022-07-23T07:35:31;8.57;;;7.60;;
2031;SDS011;27625;50.422;7.944;2022-07-23T07:37:58;8.20;;;7.40;;
2031;SDS011;27625;50.422;7.944;2022-07-23T07:40:26;8.20;;;7.10;;
2031;SDS011;27625;50.422;7.944;2022-07-23T07:42:53;8.20;;;7.40;;
2031;SDS011;27625;50.422;7.944;2022-07-23T07:45:21;8.67;;;7.77;;
2031;SDS011;27625;50.422;7.944;2022-07-23T07:47:49;9.50;;;8.10;;
2031;SDS011;27625;50.422;7.944;2022-07-23T07:50:15;8.67;;;7.40;;
2031;SDS011;27625;50.422;7.944;2022-07-23T07:52:42;8.37;;;7.50;;
2031;SDS011;27625;50.422;7.944;2022-07-23T07:55:09;8.23;;;7.37;;
2031;SDS011;27625;50.422;7.944;2022-07-23T07:57:38;7.67;;;6.97;;
2031;SDS011;27625;50.422;7.944;2022-07-23T08:00:06;8.87;;;7.97;;
2031;SDS011;27625;50.422;7.944;2022-07-23T08:02:39;8.13;;;7.33;;
2031;SDS011;27625;50.422;7.944;2022-07-23T08:05:09;8.50;;;7.10;;
2031;SDS011;27625;50.422;7.944;2022-07-23T08:07:35;287.80;;;29.53;;
2031;SDS011;27625;50.422;7.944;2022-07-23T08:10:04;9.47;;;7.00;;
2031;SDS011;27625;50.422;7.944;2022-07-23T08:12:38;9.73;;;8.17;;
2031;SDS011;27625;50.422;7.944;2022-07-23T08:15:06;9.87;;;7.13;;
2031;SDS011;27625;50.422;7.944;2022-07-23T08:17:34;11.17;;;7.97;;
2031;SDS011;27625;50.422;7.944;2022-07-23T08:20:00;13.40;;;8.70;;
2031;SDS011;27625;50.422;7.944;2022-07-23T08:22:40;12.33;;;7.77;;
2031;SDS011;27625;50.422;7.944;2022-07-23T08:25:08;10.93;;;7.20;;
2031;SDS011;27625;50.422;7.944;2022-07-23T08:27:35;9.43;;;7.53;;
2031;SDS011;27625;50.422;7.944;2022-07-23T08:30:04;8.70;;;7.67;;
2031;SDS011;27625;50.422;7.944;2022-07-23T08:32:32;8.43;;;7.60;;
2031;SDS011;27625;50.422;7.944;2022-07-23T08:34:59;12.00;;;7.97;;
2031;SDS011;27625;50.422;7.944;2022-07-23T08:37:25;8.07;;;7.23;;
2031;SDS011;27625;50.422;7.944;2022-07-23T08:39:52;8.83;;;7.37;;
2031;SDS011;27625;50.422;7.944;2022-07-23T08:42:18;8.50;;;7.30;;
2031;SDS011;27625;50.422;7.944;2022-07-23T08:44:46;11.63;;;8.07;;
2031;SDS011;27625;50.422;7.944;2022-07-23T08:47:15;11.23;;;7.57;;
2031;SDS011;27625;50.422;7.944;2022-07-23T08:49:42;9.23;;;7.47;;
2031;SDS011;27625;50.422;7.944;2022-07-23T08:52:10;8.90;;;7.90;;
2031;SDS011;27625;50.422;7.944;2022-07-23T08:54:37;8.80;;;7.90;;
2031;SDS011;27625;50.422;7.944;2022-07-23T08:57:03;8.33;;;7.40;;
2031;SDS011;27625;50.422;7.944;2022-07-23T08:59:30;10.00;;;8.27;;
2031;SDS011;27625;50.422;7.944;2022-07-23T09:01:57;8.23;;;7.40;;
2031;SDS011;27625;50.422;7.944;2022-07-23T09:04:26;8.23;;;7.43;;
2031;SDS011;27625;50.422;7.944;2022-07-23T09:06:53;9.20;;;8.30;;
2031;SDS011;27625;50.422;7.944;2022-07-23T09:09:20;10.17;;;8.97;;
2031;SDS011;27625;50.422;7.944;2022-07-23T09:11:47;9.10;;;8.20;;
2031;SDS011;27625;50.422;7.944;2022-07-23T09:14:14;10.10;;;7.50;;
2031;SDS011;27625;50.422;7.944;2022-07-23T09:16:40;9.10;;;8.20;;
2031;SDS011;27625;50.422;7.944;2022-07-23T09:19:09;9.33;;;7.70;;
2031;SDS011;27625;50.422;7.944;2022-07-23T09:21:38;9.20;;;8.30;;
2031;SDS011;27625;50.422;7.944;2022-07-23T09:24:06;9.40;;;8.50;;
2031;SDS011;27625;50.422;7.944;2022-07-23T09:26:35;8.57;;;7.77;;
2031;SDS011;27625;50.422;7.944;2022-07-23T09:29:03;8.17;;;7.37;;
2031;SDS011;27625;50.422;7.944;2022-07-23T09:31:44;8.07;;;7.10;;
2031;SDS011;27625;50.422;7.944;2022-07-23T09:34:16;9.73;;;7.50;;
2031;SDS011;27625;50.422;7.944;2022-07-23T09:36:45;8.10;;;7.20;;
2031;SDS011;27625;50.422;7.944;2022-07-23T09:39:13;7.60;;;6.80;;
2031;SDS011;27625;50.422;7.944;2022-07-23T09:41:41;9.50;;;8.20;;
2031;SDS011;27625;50.422;7.944;2022-07-23T09:44:09;9.30;;;8.20;;
2031;SDS011;27625;50.422;7.944;2022-07-23T09:46:36;8.73;;;7.57;;
2031;SDS011;27625;50.422;7.944;2022-07-23T09:49:09;11.30;;;8.00;;
2031;SDS011;27625;50.422;7.944;2022-07-23T09:51:42;9.80;;;7.40;;
2031;SDS011;27625;50.422;7.944;2022-07-23T09:54:20;8.83;;;7.93;;
2031;SDS011;27625;50.422;7.944;2022-07-23T09:56:48;8.63;;;7.83;;
2031;SDS011;27625;50.422;7.944;2022-07-23T09:59:14;8.90;;;7.87;;
2031;SDS011;27625;50.422;7.944;2022-07-23T10:01:43;8.10;;;7.30;;
2031;SDS011;27625;50.422;7.944;2022-07-23T10:04:10;8.33;;;7.53;;
2031;SDS011;27625;50.422;7.944;2022-07-23T10:06:37;10.83;;;7.30;;
2031;SDS011;27625;50.422;7.944;2022-07-23T10:09:05;8.07;;;7.23;;
2031;SDS011;27625;50.422;7.944;2022-07-23T10:11:33;10.00;;;7.77;;
2031;SDS011;27625;50.422;7.944;2022-07-23T10:14:00;11.33;;;7.60;;
2031;SDS011;27625;50.422;7.944;2022-07-23T10:16:30;7.63;;;6.93;;
2031;SDS011;27625;50.422;7.944;2022-07-23T10:18:57;7.60;;;6.90;;
2031;SDS011;27625;50.422;7.944;2022-07-23T10:21:25;7.87;;;7.07;;
2031;SDS011;27625;50.422;7.944;2022-07-23T10:24:10;10.70;;;7.90;;
2031;SDS011;27625;50.422;7.944;2022-07-23T10:26:45;9.27;;;7.57;;
2031;SDS011;27625;50.422;7.944;2022-07-23T10:29:20;7.80;;;6.83;;
2031;SDS011;27625;50.422;7.944;2022-07-23T10:31:55;8.37;;;7.50;;
2031;SDS011;27625;50.422;7.944;2022-07-23T10:34:26;10.13;;;7.10;;
2031;SDS011;27625;50.422;7.944;2022-07-23T10:37:01;8.03;;;6.77;;
2031;SDS011;27625;50.422;7.944;2022-07-23T10:39:34;7.00;;;6.30;;
2031;SDS011;27625;50.422;7.944;2022-07-23T10:42:10;7.33;;;6.57;;
2031;SDS011;27625;50.422;7.944;2022-07-23T10:44:38;9.20;;;5.93;;
2031;SDS011;27625;50.422;7.944;2022-07-23T10:47:06;7.97;;;5.83;;
2031;SDS011;27625;50.422;7.944;2022-07-23T10:49:51;7.40;;;6.00;;
2031;SDS011;27625;50.422;7.944;2022-07-23T10:52:21;6.47;;;5.87;;
2031;SDS011;27625;50.422;7.944;2022-07-23T10:54:49;7.50;;;5.93;;
2031;SDS011;27625;50.422;7.944;2022-07-23T10:57:19;8.13;;;5.50;;
2031;SDS011;27625;50.422;7.944;2022-07-23T11:02:41;6.70;;;5.43;;
2031;SDS011;27625;50.422;7.944;2022-07-23T11:05:09;6.07;;;5.23;;
2031;SDS011;27625;50.422;7.944;2022-07-23T11:10:42;6.07;;;5.47;;
2031;SDS011;27625;50.422;7.944;2022-07-23T11:16:12;6.63;;;6.03;;
2031;SDS011;27625;50.422;7.944;2022-07-23T11:19:03;8.10;;;5.30;;
2031;SDS011;27625;50.422;7.944;2022-07-23T11:21:47;6.97;;;5.47;;
2031;SDS011;27625;50.422;7.944;2022-07-23T11:24:18;7.50;;;5.10;;
2031;SDS011;27625;50.422;7.944;2022-07-23T11:26:47;7.20;;;6.00;;
2031;SDS011;27625;50.422;7.944;2022-07-23T11:29:44;6.10;;;5.50;;
2031;SDS011;27625;50.422;7.944;2022-07-23T11:35:18;5.60;;;4.70;;
2031;SDS011;27625;50.422;7.944;2022-07-23T11:37:46;6.40;;;5.10;;
2031;SDS011;27625;50.422;7.944;2022-07-23T11:40:14;9.57;;;4.77;;
2031;SDS011;27625;50.422;7.944;2022-07-23T11:42:50;5.80;;;4.70;;
2031;SDS011;27625;50.422;7.944;2022-07-23T11:45:19;5.97;;;4.67;;
2031;SDS011;27625;50.422;7.944;2022-07-23T11:47:46;5.60;;;4.70;;
2031;SDS011;27625;50.422;7.944;2022-07-23T11:50:12;5.53;;;4.60;;
2031;SDS011;27625;50.422;7.944;2022-07-23T11:52:39;6.23;;;5.63;;
2031;SDS011;27625;50.422;7.944;2022-07-23T11:55:06;6.67;;;5.10;;
2031;SDS011;27625;50.422;7.944;2022-07-23T11:57:35;8.83;;;4.57;;
2031;SDS011;27625;50.422;7.944;2022-07-23T12:00:03;5.90;;;5.30;;
2031;SDS011;27625;50.422;7.944;2022-07-23T12:02:33;11.13;;;5.40;;
2031;SDS011;27625;50.422;7.944;2022-07-23T12:04:59;7.87;;;5.77;;
2031;SDS011;27625;50.422;7.944;2022-07-23T12:07:27;6.57;;;5.13;;
2031;SDS011;27625;50.422;7.944;2022-07-23T12:09:55;6.60;;;5.70;;
2031;SDS011;27625;50.422;7.944;2022-07-23T12:12:23;5.90;;;5.30;;
2031;SDS011;27625;50.422;7.944;2022-07-23T12:14:51;5.37;;;4.63;;
2031;SDS011;27625;50.422;7.944;2022-07-23T12:17:18;6.10;;;4.87;;
2031;SDS011;27625;50.422;7.944;2022-07-23T12:19:46;6.67;;;5.40;;
2031;SDS011;27625;50.422;7.944;2022-07-23T12:22:13;5.00;;;4.50;;
2031;SDS011;27625;50.422;7.944;2022-07-23T12:24:52;6.03;;;4.90;;
2031;SDS011;27625;50.422;7.944;2022-07-23T12:27:23;15.40;;;5.83;;
2031;SDS011;27625;50.422;7.944;2022-07-23T12:29:50;6.80;;;5.20;;
2031;SDS011;27625;50.422;7.944;2022-07-23T12:32:20;6.97;;;5.00;;
2031;SDS011;27625;50.422;7.944;2022-07-23T12:34:50;5.83;;;5.20;;
2031;SDS011;27625;50.422;7.944;2022-07-23T12:37:30;6.10;;;4.93;;
2031;SDS011;27625;50.422;7.944;2022-07-23T12:39:58;8.73;;;5.57;;
2031;SDS011;27625;50.422;7.944;2022-07-23T12:42:44;6.03;;;5.10;;
2031;SDS011;27625;50.422;7.944;2022-07-23T12:45:11;5.83;;;4.80;;
2031;SDS011;27625;50.422;7.944;2022-07-23T12:47:51;6.37;;;5.20;;
2031;SDS011;27625;50.422;7.944;2022-07-23T12:50:41;6.50;;;5.37;;
2031;SDS011;27625;50.422;7.944;2022-07-23T12:53:11;6.53;;;5.13;;
2031;SDS011;27625;50.422;7.944;2022-07-23T12:55:39;5.60;;;4.83;;
2031;SDS011;27625;50.422;7.944;2022-07-23T12:58:07;5.60;;;5.00;;
2031;SDS011;27625;50.422;7.944;2022-07-23T13:03:32;7.37;;;5.70;;
2031;SDS011;27625;50.422;7.944;2022-07-23T13:06:03;6.37;;;5.30;;
2031;SDS011;27625;50.422;7.944;2022-07-23T13:08:31;6.30;;;5.10;;
2031;SDS011;27625;50.422;7.944;2022-07-23T13:10:58;5.70;;;5.20;;
2031;SDS011;27625;50.422;7.944;2022-07-23T13:13:26;5.83;;;4.83;;
2031;SDS011;27625;50.422;7.944;2022-07-23T13:15:53;8.13;;;5.10;;
2031;SDS011;27625;50.422;7.944;2022-07-23T13:18:21;7.20;;;5.13;;
2031;SDS011;27625;50.422;7.944;2022-07-23T13:20:47;5.23;;;4.73;;
2031;SDS011;27625;50.422;7.944;2022-07-23T13:23:16;4.80;;;4.23;;
2031;SDS011;27625;50.422;7.944;2022-07-23T13:25:43;6.10;;;5.37;;
2031;SDS011;27625;50.422;7.944;2022-07-23T13:28:11;6.17;;;5.13;;
2031;SDS011;27625;50.422;7.944;2022-07-23T13:30:38;6.00;;;4.57;;
2031;SDS011;27625;50.422;7.944;2022-07-23T13:33:04;8.40;;;5.17;;
2031;SDS011;27625;50.422;7.944;2022-07-23T13:35:31;6.57;;;4.93;;
2031;SDS011;27625;50.422;7.944;2022-07-23T13:37:58;5.80;;;5.20;;
2031;SDS011;27625;50.422;7.944;2022-07-23T13:40:26;5.37;;;4.83;;
2031;SDS011;27625;50.422;7.944;2022-07-23T13:42:52;5.87;;;4.73;;
2031;SDS011;27625;50.422;7.944;2022-07-23T13:45:19;6.00;;;4.93;;
2031;SDS011;27625;50.422;7.944;2022-07-23T13:47:46;5.17;;;4.67;;
2031;SDS011;27625;50.422;7.944;2022-07-23T13:50:12;5.73;;;4.93;;
2031;SDS011;27625;50.422;7.944;2022-07-23T13:52:41;8.73;;;4.93;;
2031;SDS011;27625;50.422;7.944;2022-07-23T13:55:07;5.90;;;4.53;;
2031;SDS011;27625;50.422;7.944;2022-07-23T13:57:35;6.70;;;4.67;;
2031;SDS011;27625;50.422;7.944;2022-07-23T14:00:03;6.90;;;4.80;;
2031;SDS011;27625;50.422;7.944;2022-07-23T14:02:32;5.00;;;4.50;;
2031;SDS011;27625;50.422;7.944;2022-07-23T14:04:58;5.30;;;4.80;;
2031;SDS011;27625;50.422;7.944;2022-07-23T14:07:25;5.60;;;5.00;;
2031;SDS011;27625;50.422;7.944;2022-07-23T14:09:51;8.60;;;4.57;;
2031;SDS011;27625;50.422;7.944;2022-07-23T14:12:18;6.00;;;4.83;;
2031;SDS011;27625;50.422;7.944;2022-07-23T14:14:51;5.87;;;5.27;;
2031;SDS011;27625;50.422;7.944;2022-07-23T14:17:20;8.03;;;7.03;;
2031;SDS011;27625;50.422;7.944;2022-07-23T14:19:47;22.87;;;19.13;;
2031;SDS011;27625;50.422;7.944;2022-07-23T14:22:14;5.93;;;4.80;;
2031;SDS011;27625;50.422;7.944;2022-07-23T14:24:41;5.70;;;4.70;;
2031;SDS011;27625;50.422;7.944;2022-07-23T14:27:08;5.77;;;5.20;;
2031;SDS011;27625;50.422;7.944;2022-07-23T14:29:34;6.07;;;5.00;;
2031;SDS011;27625;50.422;7.944;2022-07-23T14:32:02;6.30;;;4.90;;
2031;SDS011;27625;50.422;7.944;2022-07-23T14:34:29;5.30;;;4.77;;
2031;SDS011;27625;50.422;7.944;2022-07-23T14:36:56;5.77;;;5.10;;
2031;SDS011;27625;50.422;7.944;2022-07-23T14:39:22;5.80;;;4.63;;
2031;SDS011;27625;50.422;7.944;2022-07-23T14:41:48;5.70;;;4.43;;
2031;SDS011;27625;50.422;7.944;2022-07-23T14:44:15;5.83;;;5.00;;
2031;SDS011;27625;50.422;7.944;2022-07-23T14:46:42;6.30;;;4.93;;
2031;SDS011;27625;50.422;7.944;2022-07-23T14:49:10;6.13;;;4.93;;
2031;SDS011;27625;50.422;7.944;2022-07-23T14:51:36;6.40;;;5.80;;
2031;SDS011;27625;50.422;7.944;2022-07-23T14:54:03;5.90;;;5.30;;
2031;SDS011;27625;50.422;7.944;2022-07-23T14:56:30;5.83;;;4.70;;
2031;SDS011;27625;50.422;7.944;2022-07-23T14:58:58;7.50;;;5.23;;
2031;SDS011;27625;50.422;7.944;2022-07-23T15:01:25;5.57;;;5.07;;
2031;SDS011;27625;50.422;7.944;2022-07-23T15:03:52;6.40;;;4.93;;
2031;SDS011;27625;50.422;7.944;2022-07-23T15:06:19;5.13;;;4.63;;
2031;SDS011;27625;50.422;7.944;2022-07-23T15:08:46;5.93;;;5.30;;
2031;SDS011;27625;50.422;7.944;2022-07-23T15:11:13;6.03;;;5.10;;